Time;durP1;ratioP1;P1;durP2;ratioP2;P2;SDS_P1;SDS_P2;PMS_P1;PMS_P2;Temp;Humidity;BMP_temperature;BMP_pressure;BME280_temperature;BME280_humidity;BME280_pressure;Samples;Min_cycle;Max_cycle;Signal;HPM_P1;HPM_P2
2022/12/21 00:01:14;;;;;;;17.33;13.07;;;8.80;63.40;;;;;;5047879;28;20458;-70
2022/12/21 00:03:40;;;;;;;21.90;13.57;;;8.90;64.70;;;;;;5041565;28;20976;-70
2022/12/21 00:06:06;;;;;;;19.97;13.40;;;8.90;65.30;;;;;;5045566;28;21048;-70
2022/12/21 00:08:37;;;;;;;20.93;13.37;;;9.00;65.10;;;;;;5043373;28;20437;-70
2022/12/21 00:11:03;;;;;;;21.10;12.30;;;9.00;63.00;;;;;;5040509;28;21010;-70
2022/12/21 00:13:30;;;;;;;21.13;12.60;;;9.00;59.60;;;;;;5046247;28;20503;-70
2022/12/21 00:16:04;;;;;;;19.37;13.70;;;9.00;58.60;;;;;;5042245;28;20459;-70
2022/12/21 00:18:34;;;;;;;19.50;12.73;;;9.00;63.80;;;;;;5037813;28;20475;-70
2022/12/21 00:21:02;;;;;;;18.90;12.30;;;9.00;61.30;;;;;;5036618;28;20455;-70
2022/12/21 00:23:29;;;;;;;30.43;13.67;;;9.00;61.30;;;;;;5048316;28;20419;-70
2022/12/21 00:25:54;;;;;;;20.70;12.90;;;9.00;58.20;;;;;;5045199;28;20450;-70
2022/12/21 00:28:20;;;;;;;18.40;12.73;;;8.90;60.70;;;;;;5048258;28;20520;-70
2022/12/21 00:30:46;;;;;;;19.67;12.87;;;8.80;62.00;;;;;;5050874;28;20292;-71
2022/12/21 00:33:11;;;;;;;16.10;12.33;;;8.80;63.70;;;;;;5044234;28;20177;-71
2022/12/21 00:35:37;;;;;;;19.80;12.53;;;8.80;72.00;;;;;;5046240;28;20192;-70
2022/12/21 00:38:02;;;;;;;17.03;12.70;;;8.90;74.20;;;;;;5038784;28;20177;-71
2022/12/21 00:40:28;;;;;;;17.80;12.33;;;8.90;76.00;;;;;;5044460;28;20197;-70
2022/12/21 00:42:53;;;;;;;20.30;12.93;;;8.90;77.60;;;;;;5039813;28;20288;-70
2022/12/21 00:45:19;;;;;;;20.63;12.60;;;8.90;77.10;;;;;;5045882;28;20213;-71
2022/12/21 00:47:44;;;;;;;17.90;11.37;;;8.90;79.90;;;;;;5049663;28;20185;-70
2022/12/21 00:50:10;;;;;;;13.93;11.10;;;8.90;77.40;;;;;;5044495;28;20563;-70
2022/12/21 00:52:35;;;;;;;20.20;11.77;;;9.00;80.40;;;;;;5049413;28;20169;-70
2022/12/21 00:55:01;;;;;;;14.43;9.80;;;8.90;77.60;;;;;;5046429;28;20268;-70
2022/12/21 00:57:28;;;;;;;13.90;9.80;;;9.00;90.60;;;;;;5040821;28;20184;-70
2022/12/21 00:59:53;;;;;;;15.10;9.30;;;9.00;82.80;;;;;;5046191;28;20197;-71
2022/12/21 01:02:19;;;;;;;9.97;7.83;;;9.10;83.30;;;;;;5053285;28;20791;-70
2022/12/21 01:04:44;;;;;;;14.07;8.57;;;9.20;90.90;;;;;;5044073;28;20270;-71
2022/12/21 01:07:10;;;;;;;15.30;9.17;;;9.30;82.00;;;;;;5045067;28;20424;-70
2022/12/21 01:09:35;;;;;;;11.97;8.63;;;9.40;78.60;;;;;;5047665;28;20629;-71
2022/12/21 01:12:01;;;;;;;15.40;9.47;;;9.40;78.80;;;;;;5040813;28;20189;-71
2022/12/21 01:14:26;;;;;;;12.90;9.43;;;9.30;80.20;;;;;;5036749;28;20174;-71
2022/12/21 01:16:52;;;;;;;14.47;9.63;;;9.40;84.30;;;;;;5047290;28;20552;-71
2022/12/21 01:19:17;;;;;;;14.70;9.90;;;9.40;82.80;;;;;;5042231;28;20719;-71
2022/12/21 01:21:43;;;;;;;17.23;8.80;;;9.30;87.50;;;;;;5041303;28;20178;-71
2022/12/21 01:24:12;;;;;;;14.87;8.80;;;9.40;94.40;;;;;;5045329;28;20631;-72
2022/12/21 01:26:37;;;;;;;14.43;10.40;;;9.50;91.00;;;;;;5051090;28;20517;-71
2022/12/21 01:29:03;;;;;;;17.40;10.00;;;9.50;88.00;;;;;;5046374;28;20434;-71
2022/12/21 01:31:28;;;;;;;14.53;9.27;;;9.50;90.20;;;;;;5038727;28;20185;-72
2022/12/21 01:33:54;;;;;;;15.97;10.60;;;9.50;90.70;;;;;;5039317;28;20181;-71
2022/12/21 01:36:20;;;;;;;16.03;10.60;;;9.50;90.00;;;;;;5050165;28;20709;-72
2022/12/21 01:38:46;;;;;;;14.87;10.50;;;9.40;91.80;;;;;;5046303;28;20181;-72
2022/12/21 01:41:24;;;;;;;14.60;10.40;;;9.40;92.00;;;;;;5041822;28;20529;-72
2022/12/21 01:43:55;;;;;;;17.60;10.87;;;9.50;91.70;;;;;;5046510;28;20500;-71
2022/12/21 01:46:38;;;;;;;17.80;11.20;;;9.40;91.90;;;;;;5044957;28;21008;-71
2022/12/21 01:49:21;;;;;;;17.57;11.43;;;9.40;92.50;;;;;;5045530;28;20464;-71
2022/12/21 01:51:53;;;;;;;21.63;11.80;;;9.40;94.00;;;;;;5043659;28;20431;-72
2022/12/21 01:54:57;;;;;;;19.63;11.03;;;9.40;94.10;;;;;;5047670;28;20431;-72
2022/12/21 01:57:24;;;;;;;17.90;11.33;;;9.40;95.20;;;;;;5025790;28;20938;-72
2022/12/21 01:59:54;;;;;;;17.37;11.10;;;9.40;94.60;;;;;;5043433;28;20447;-71
2022/12/21 02:02:27;;;;;;;16.57;11.17;;;9.40;95.80;;;;;;5041423;28;20436;-71
2022/12/21 02:04:53;;;;;;;18.90;12.70;;;9.40;96.40;;;;;;5048454;28;20562;-71
2022/12/21 02:07:19;;;;;;;15.87;11.33;;;9.40;95.90;;;;;;5041589;28;20791;-72
2022/12/21 02:09:46;;;;;;;25.10;11.80;;;9.40;96.20;;;;;;5041802;28;21032;-72
2022/12/21 02:12:15;;;;;;;19.93;12.13;;;9.40;97.70;;;;;;5048887;28;20411;-71
2022/12/21 02:14:43;;;;;;;18.60;12.47;;;9.40;97.70;;;;;;5042362;28;20497;-71
2022/12/21 02:17:38;;;;;;;20.63;12.50;;;9.30;99.10;;;;;;5042711;28;20412;-71
2022/12/21 02:20:38;;;;;;;16.27;11.00;;;9.40;97.80;;;;;;5033046;28;20463;-71
2022/12/21 02:23:41;;;;;;;16.97;11.60;;;9.40;99.20;;;;;;5026635;28;20427;-72
2022/12/21 02:26:36;;;;;;;20.73;12.77;;;9.40;99.90;;;;;;5041471;28;20506;-72
2022/12/21 02:29:26;;;;;;;24.90;11.70;;;9.30;98.00;;;;;;5058560;28;20438;-70
2022/12/21 02:32:06;;;;;;;17.40;12.30;;;9.30;99.20;;;;;;5030959;28;20440;-72
2022/12/21 02:35:07;;;;;;;22.70;13.23;;;9.30;99.10;;;;;;5048391;28;20419;-72
2022/12/21 02:38:07;;;;;;;17.30;12.10;;;9.30;99.20;;;;;;5036324;28;20505;-71
2022/12/21 02:41:07;;;;;;;19.80;13.10;;;9.30;99.10;;;;;;5039109;28;20554;-70
2022/12/21 02:44:13;;;;;;;19.17;13.00;;;9.20;99.10;;;;;;5036378;28;20437;-70
2022/12/21 02:47:07;;;;;;;19.83;12.47;;;9.30;99.10;;;;;;5042391;28;20513;-71
2022/12/21 02:49:43;;;;;;;22.87;13.53;;;9.20;99.10;;;;;;5035923;28;20457;-72
2022/12/21 02:52:26;;;;;;;24.27;14.20;;;9.30;99.20;;;;;;5028363;28;20922;-71
2022/12/21 02:54:57;;;;;;;17.40;12.37;;;9.30;99.30;;;;;;5038686;28;20435;-72
2022/12/21 02:57:35;;;;;;;21.30;13.50;;;9.20;99.90;;;;;;5042818;28;20439;-72
2022/12/21 03:00:04;;;;;;;22.00;13.97;;;9.30;99.90;;;;;;5038890;28;20462;-71
2022/12/21 03:02:42;;;;;;;21.67;13.37;;;9.20;99.60;;;;;;5034493;28;20456;-72
2022/12/21 03:05:12;;;;;;;19.33;13.10;;;9.30;99.50;;;;;;5045725;28;20582;-71
2022/12/21 03:07:58;;;;;;;20.20;13.83;;;9.30;99.90;;;;;;5038382;28;20429;-71
2022/12/21 03:10:49;;;;;;;26.10;14.27;;;9.20;99.90;;;;;;5043708;28;20452;-71
2022/12/21 03:13:27;;;;;;;23.10;14.20;;;9.20;99.90;;;;;;5041480;28;20513;-70
2022/12/21 03:15:57;;;;;;;19.07;12.17;;;9.20;99.90;;;;;;5034923;28;20447;-72
2022/12/21 03:18:47;;;;;;;24.50;13.40;;;9.40;99.90;;;;;;5046249;28;20423;-72
2022/12/21 03:21:58;;;;;;;17.30;12.87;;;9.20;99.90;;;;;;5037653;28;20451;-72
2022/12/21 03:24:30;;;;;;;18.57;12.60;;;9.30;99.90;;;;;;5044228;28;20522;-71
2022/12/21 03:27:03;;;;;;;20.93;13.43;;;9.30;99.90;;;;;;5032694;28;20432;-71
2022/12/21 03:29:35;;;;;;;23.00;13.33;;;9.30;99.90;;;;;;5040295;28;20977;-70
2022/12/21 03:32:11;;;;;;;21.27;12.70;;;9.30;99.90;;;;;;5032290;28;20444;-72
2022/12/21 03:34:41;;;;;;;29.07;13.43;;;9.30;99.90;;;;;;5042851;28;20493;-72
2022/12/21 03:37:21;;;;;;;22.13;12.57;;;9.30;99.90;;;;;;5040317;28;20421;-71
2022/12/21 03:39:58;;;;;;;25.13;13.53;;;9.30;99.90;;;;;;5037576;28;20529;-71
2022/12/21 03:42:34;;;;;;;17.73;12.70;;;9.30;99.90;;;;;;5036895;28;20420;-70
2022/12/21 03:45:09;;;;;;;21.73;13.63;;;9.30;99.90;;;;;;5039557;28;20955;-72
2022/12/21 03:47:54;;;;;;;22.33;13.43;;;9.30;99.90;;;;;;5045720;28;20407;-71
2022/12/21 03:50:23;;;;;;;24.60;13.27;;;9.30;99.90;;;;;;5047913;28;20462;-71
2022/12/21 03:53:04;;;;;;;21.77;13.40;;;9.30;99.90;;;;;;5032205;28;20443;-73
2022/12/21 03:55:33;;;;;;;22.73;12.93;;;9.40;99.90;;;;;;5042568;28;20423;-69
2022/12/21 03:58:00;;;;;;;19.23;12.87;;;9.40;99.90;;;;;;5034764;28;20498;-71
2022/12/21 04:00:30;;;;;;;24.97;13.57;;;9.40;99.90;;;;;;5041680;28;20925;-71
2022/12/21 04:03:21;;;;;;;19.20;12.00;;;9.40;99.90;;;;;;5037480;28;20442;-72
2022/12/21 04:06:03;;;;;;;21.53;12.47;;;9.50;99.90;;;;;;5045867;28;20545;-72
2022/12/21 04:08:29;;;;;;;23.87;13.90;;;9.50;99.90;;;;;;5036584;28;20436;-71
2022/12/21 04:10:55;;;;;;;21.57;13.50;;;9.50;99.90;;;;;;5045869;28;20428;-71
2022/12/21 04:13:20;;;;;;;19.57;12.70;;;9.50;99.90;;;;;;5037546;28;20435;-71
2022/12/21 04:16:04;;;;;;;22.67;13.67;;;9.50;99.90;;;;;;5032365;28;20197;-71
2022/12/21 04:21:16;;;;;;;19.13;12.23;;;9.50;99.90;;;;;;5036415;28;20486;-72
2022/12/21 04:29:09;;;;;;;19.40;12.10;;;9.50;99.90;;;;;;5043307;28;20993;-72
2022/12/21 04:31:35;;;;;;;23.87;12.67;;;9.50;99.90;;;;;;5041731;28;20417;-72
2022/12/21 04:34:00;;;;;;;24.37;12.10;;;9.50;99.90;;;;;;5044679;28;20173;-71
2022/12/21 04:39:11;;;;;;;25.43;13.20;;;9.50;99.90;;;;;;5040587;28;20282;-72
2022/12/21 04:41:37;;;;;;;21.27;12.63;;;9.50;99.90;;;;;;5039090;28;20574;-72
2022/12/21 04:44:02;;;;;;;16.00;11.07;;;9.50;99.90;;;;;;5032184;28;20534;-72
2022/12/21 04:46:28;;;;;;;23.50;12.37;;;9.60;99.90;;;;;;5041935;28;20197;-70
2022/12/21 04:48:53;;;;;;;17.50;11.30;;;9.60;99.90;;;;;;5029162;28;20296;-72
2022/12/21 04:51:22;;;;;;;17.50;12.00;;;9.60;99.90;;;;;;5043314;28;20178;-71
2022/12/21 04:53:48;;;;;;;17.10;11.70;;;9.70;99.90;;;;;;5045008;28;20170;-71
2022/12/21 04:56:14;;;;;;;23.70;12.47;;;9.70;99.90;;;;;;5040056;28;20966;-72
2022/12/21 04:58:41;;;;;;;23.00;11.40;;;9.70;99.90;;;;;;5037420;28;20431;-72
2022/12/21 05:01:12;;;;;;;16.20;10.43;;;9.80;99.90;;;;;;5038088;28;20982;-71
2022/12/21 05:03:39;;;;;;;20.10;11.43;;;9.80;99.90;;;;;;5033254;28;20448;-71
2022/12/21 05:06:05;;;;;;;18.23;11.60;;;9.80;99.90;;;;;;5036522;28;20456;-72
2022/12/21 05:08:31;;;;;;;17.87;12.20;;;9.80;99.90;;;;;;5038235;28;20973;-71
2022/12/21 05:11:07;;;;;;;19.73;12.20;;;9.80;99.90;;;;;;5036902;28;20459;-72
2022/12/21 05:13:33;;;;;;;22.43;13.53;;;9.80;99.90;;;;;;5036747;28;20181;-72
2022/12/21 05:16:03;;;;;;;23.87;14.57;;;9.80;99.90;;;;;;5035969;28;20441;-71
2022/12/21 05:18:28;;;;;;;22.37;12.30;;;9.80;99.90;;;;;;5046676;28;20666;-72
2022/12/21 05:20:54;;;;;;;23.43;12.70;;;9.80;99.90;;;;;;5043034;28;20463;-71
2022/12/21 05:23:19;;;;;;;21.10;12.57;;;9.80;99.90;;;;;;5038975;28;20196;-72
2022/12/21 05:25:45;;;;;;;16.33;10.63;;;9.80;99.90;;;;;;5047750;28;20239;-70
2022/12/21 05:28:10;;;;;;;20.03;11.30;;;9.80;99.90;;;;;;5046685;28;20663;-70
2022/12/21 05:30:36;;;;;;;18.50;10.73;;;9.80;99.90;;;;;;5042010;28;20582;-71
2022/12/21 05:33:01;;;;;;;21.47;11.57;;;9.80;99.90;;;;;;5039717;28;20509;-71
2022/12/21 05:35:27;;;;;;;17.63;11.27;;;9.90;99.90;;;;;;5036001;28;20185;-70
2022/12/21 05:37:52;;;;;;;21.00;11.40;;;9.90;99.90;;;;;;5042136;28;20211;-71
2022/12/21 05:40:18;;;;;;;19.17;10.87;;;9.90;99.90;;;;;;5042563;28;20224;-70
2022/12/21 05:42:43;;;;;;;18.17;11.37;;;9.90;99.90;;;;;;5041500;28;20181;-71
2022/12/21 05:45:09;;;;;;;25.03;12.20;;;9.90;99.90;;;;;;5050466;28;20228;-71
2022/12/21 05:47:35;;;;;;;16.93;10.93;;;9.90;99.90;;;;;;5037946;28;20201;-72
2022/12/21 05:50:00;;;;;;;26.00;12.07;;;9.90;99.90;;;;;;5046507;28;20272;-71
2022/12/21 05:52:26;;;;;;;20.80;11.20;;;9.90;99.90;;;;;;5041753;28;20193;-71
2022/12/21 05:54:51;;;;;;;19.10;10.70;;;9.90;99.90;;;;;;5050898;28;20173;-71
2022/12/21 05:57:17;;;;;;;19.80;10.20;;;9.90;99.90;;;;;;5043008;28;20307;-71
2022/12/21 05:59:42;;;;;;;14.60;8.97;;;9.90;99.90;;;;;;5047402;28;20559;-72
2022/12/21 06:02:08;;;;;;;14.33;9.77;;;9.90;99.90;;;;;;5046048;28;20181;-70
2022/12/21 06:04:33;;;;;;;16.20;9.83;;;9.90;99.90;;;;;;5045088;28;20354;-71
2022/12/21 06:06:59;;;;;;;17.50;9.90;;;9.90;99.90;;;;;;5042421;28;20177;-71
2022/12/21 06:09:24;;;;;;;14.77;8.60;;;9.90;99.90;;;;;;5039671;28;20227;-72
2022/12/21 06:11:50;;;;;;;17.27;9.53;;;10.00;99.90;;;;;;5047314;28;20243;-71
2022/12/21 06:14:15;;;;;;;14.77;8.57;;;10.10;99.90;;;;;;5045481;28;21095;-72
2022/12/21 06:16:41;;;;;;;13.87;8.17;;;10.10;99.90;;;;;;5047554;28;20191;-73
2022/12/21 06:19:07;;;;;;;14.50;8.67;;;10.20;99.90;;;;;;5047178;28;20741;-70
2022/12/21 06:21:32;;;;;;;19.03;9.10;;;10.30;99.90;;;;;;5047124;28;20215;-72
2022/12/21 06:23:58;;;;;;;19.53;9.23;;;10.20;99.90;;;;;;5050250;28;20231;-71
2022/12/21 06:26:24;;;;;;;19.27;8.67;;;10.20;99.90;;;;;;5048040;28;20197;-71
2022/12/21 06:28:53;;;;;;;13.57;7.97;;;10.20;99.90;;;;;;5039988;28;20177;-71
2022/12/21 06:31:20;;;;;;;18.97;8.37;;;10.20;99.90;;;;;;5049020;28;20210;-71
2022/12/21 06:33:45;;;;;;;20.63;9.00;;;10.30;99.90;;;;;;5042919;28;20479;-71
2022/12/21 06:36:12;;;;;;;15.97;9.50;;;10.30;99.90;;;;;;5043344;28;20500;-71
2022/12/21 06:38:38;;;;;;;15.57;9.50;;;10.30;99.90;;;;;;5039611;28;20191;-71
2022/12/21 06:41:10;;;;;;;18.27;8.97;;;10.30;99.90;;;;;;5050055;28;20440;-69
2022/12/21 06:43:37;;;;;;;16.87;9.03;;;10.30;99.90;;;;;;5050209;28;20431;-71
2022/12/21 06:46:09;;;;;;;13.63;8.23;;;10.30;99.90;;;;;;5050755;28;20510;-71
2022/12/21 06:48:35;;;;;;;17.20;9.10;;;10.30;99.90;;;;;;5050227;28;20985;-71
2022/12/21 06:51:03;;;;;;;16.73;9.30;;;10.30;99.90;;;;;;5036887;28;20460;-70
2022/12/21 06:53:31;;;;;;;18.80;9.23;;;10.40;99.90;;;;;;5037140;28;20436;-72
2022/12/21 06:56:05;;;;;;;13.27;8.90;;;10.40;99.90;;;;;;5039568;28;20455;-69
2022/12/21 06:58:31;;;;;;;15.23;8.23;;;10.40;99.90;;;;;;5033123;28;20439;-71
2022/12/21 07:01:04;;;;;;;14.97;7.30;;;10.40;99.90;;;;;;5043910;28;20603;-69
2022/12/21 07:03:29;;;;;;;17.47;9.33;;;10.30;99.90;;;;;;5043297;28;20239;-70
2022/12/21 07:05:55;;;;;;;18.80;10.40;;;10.30;99.90;;;;;;5038183;28;20471;-70
2022/12/21 07:08:21;;;;;;;17.13;10.73;;;10.30;99.90;;;;;;5041759;28;20186;-70
2022/12/21 07:10:47;;;;;;;18.80;11.10;;;10.30;99.90;;;;;;5048032;28;20273;-71
2022/12/21 07:13:12;;;;;;;22.87;11.57;;;10.30;99.90;;;;;;5040215;28;20185;-71
2022/12/21 07:15:38;;;;;;;22.07;11.03;;;10.30;99.90;;;;;;5050340;28;20189;-70
2022/12/21 07:18:04;;;;;;;13.67;9.57;;;10.30;99.90;;;;;;5041701;28;20177;-71
2022/12/21 07:20:29;;;;;;;16.20;8.77;;;10.30;99.90;;;;;;5043364;28;20323;-72
2022/12/21 07:22:55;;;;;;;15.80;8.63;;;10.40;99.90;;;;;;5036607;28;20219;-70
2022/12/21 07:25:20;;;;;;;13.57;8.27;;;10.40;99.90;;;;;;5045653;28;20239;-71
2022/12/21 07:27:46;;;;;;;14.77;8.90;;;10.40;99.90;;;;;;5038327;28;20696;-70
2022/12/21 07:30:12;;;;;;;12.07;8.37;;;10.50;99.90;;;;;;5047412;28;20197;-71
2022/12/21 07:32:38;;;;;;;15.07;8.20;;;10.60;99.90;;;;;;5032037;28;20181;-71
2022/12/21 07:35:04;;;;;;;15.77;8.90;;;10.50;99.90;;;;;;5038768;28;20490;-71
2022/12/21 07:37:29;;;;;;;14.70;8.03;;;10.40;99.90;;;;;;5034816;28;20185;-71
2022/12/21 07:39:55;;;;;;;11.90;7.67;;;10.50;99.90;;;;;;5038630;28;20209;-70
2022/12/21 07:42:20;;;;;;;10.23;7.00;;;10.50;99.90;;;;;;5046880;28;20181;-72
2022/12/21 07:44:46;;;;;;;14.33;7.67;;;10.60;99.90;;;;;;5043070;28;20528;-71
2022/12/21 07:47:11;;;;;;;16.13;7.57;;;10.60;99.90;;;;;;5040027;28;20181;-71
2022/12/21 07:49:37;;;;;;;16.67;7.00;;;10.60;99.90;;;;;;5043865;28;20567;-72
2022/12/21 07:52:02;;;;;;;16.87;6.17;;;10.60;99.90;;;;;;5037082;28;20260;-71
2022/12/21 07:54:28;;;;;;;11.47;5.77;;;10.60;99.90;;;;;;5029026;28;20174;-70
2022/12/21 07:56:53;;;;;;;11.80;5.77;;;10.60;99.90;;;;;;5033933;28;20188;-71
2022/12/21 07:59:19;;;;;;;18.87;5.67;;;10.60;99.90;;;;;;5038828;28;20201;-71
2022/12/21 08:01:44;;;;;;;6.23;5.07;;;10.60;99.90;;;;;;5040611;28;20199;-70
2022/12/21 08:04:10;;;;;;;9.50;5.40;;;10.60;99.90;;;;;;5033737;28;20220;-71
2022/12/21 08:06:35;;;;;;;7.70;4.50;;;10.70;99.90;;;;;;5039851;28;20226;-71
2022/12/21 08:09:02;;;;;;;10.47;5.43;;;10.70;99.90;;;;;;5033940;28;20265;-70
2022/12/21 08:11:29;;;;;;;10.73;5.80;;;10.70;99.90;;;;;;5029984;28;20301;-71
2022/12/21 08:13:55;;;;;;;8.03;5.60;;;10.70;99.90;;;;;;5038955;28;20917;-71
2022/12/21 08:16:21;;;;;;;7.30;4.67;;;10.70;99.90;;;;;;5041204;28;20977;-71
2022/12/21 08:18:47;;;;;;;9.40;4.90;;;10.70;99.90;;;;;;5045651;28;20522;-70
2022/12/21 14:23:27;;;;;;;6.50;3.37;;;11.30;99.90;;;;;;5066517;28;21094;-71
2022/12/21 14:25:56;;;;;;;9.60;4.20;;;11.40;99.90;;;;;;5065453;28;20525;-69
2022/12/21 14:28:43;;;;;;;6.13;4.00;;;11.50;99.90;;;;;;5064886;28;20419;-70
2022/12/21 14:31:09;;;;;;;4.50;3.40;;;11.70;99.90;;;;;;5058130;28;20510;-69
2022/12/21 14:33:43;;;;;;;6.70;4.90;;;11.80;99.80;;;;;;5065716;28;20411;-71
2022/12/21 14:36:17;;;;;;;12.97;5.83;;;11.80;99.80;;;;;;5061131;28;20274;-71
2022/12/21 14:39:03;;;;;;;6.30;3.20;;;11.80;99.90;;;;;;5064043;28;20426;-72
2022/12/21 14:41:38;;;;;;;5.90;3.27;;;11.80;99.80;;;;;;5054282;28;20455;-73
2022/12/21 14:44:14;;;;;;;6.60;3.00;;;11.80;99.90;;;;;;5081459;28;20498;-72
2022/12/21 14:47:01;;;;;;;4.23;3.60;;;11.80;98.50;;;;;;5061791;28;20408;-72
2022/12/21 14:49:30;;;;;;;5.03;3.00;;;11.90;97.70;;;;;;5065483;28;20996;-72
2022/12/21 14:52:00;;;;;;;3.63;2.70;;;11.90;93.70;;;;;;5059913;28;20485;-72
2022/12/21 14:54:35;;;;;;;5.60;3.37;;;12.00;91.80;;;;;;5065937;28;20727;-71
2022/12/21 14:57:10;;;;;;;7.23;3.23;;;12.00;91.20;;;;;;5059509;28;20427;-71
2022/12/21 14:59:47;;;;;;;4.00;3.60;;;12.00;87.40;;;;;;5059129;28;20485;-69
2022/12/21 15:02:44;;;;;;;4.97;3.93;;;12.00;85.30;;;;;;5053805;28;20474;-71
2022/12/21 15:05:24;;;;;;;6.90;3.60;;;12.10;82.30;;;;;;5057266;28;20493;-70
2022/12/21 15:08:04;;;;;;;5.30;3.70;;;12.00;80.30;;;;;;5057424;28;20251;-71
2022/12/21 15:10:36;;;;;;;4.93;3.87;;;12.10;80.60;;;;;;5063951;28;20442;-71
2022/12/21 15:13:04;;;;;;;4.27;2.90;;;12.10;78.30;;;;;;5055501;28;20431;-71
2022/12/21 15:15:35;;;;;;;4.87;3.53;;;12.00;79.60;;;;;;5063071;28;20442;-70
2022/12/21 15:18:22;;;;;;;6.50;3.57;;;11.90;82.30;;;;;;5052160;28;20423;-70
2022/12/21 15:20:51;;;;;;;5.53;3.50;;;11.90;82.80;;;;;;5061122;28;20530;-68
2022/12/21 15:23:32;;;;;;;12.40;3.20;;;11.80;86.00;;;;;;5061738;28;20462;-71
2022/12/21 15:26:13;;;;;;;5.40;3.40;;;11.90;89.40;;;;;;5062023;28;20759;-72
2022/12/21 15:28:41;;;;;;;4.07;3.20;;;11.80;90.20;;;;;;5058648;28;20851;-71
2022/12/21 15:31:17;;;;;;;6.40;3.80;;;11.90;90.70;;;;;;5059580;28;20544;-69
2022/12/21 15:33:45;;;;;;;6.03;3.40;;;11.90;90.10;;;;;;5054171;28;20419;-70
2022/12/21 15:36:44;;;;;;;5.60;4.10;;;11.80;91.50;;;;;;5048593;28;20422;-72
2022/12/21 15:39:21;;;;;;;6.20;3.27;;;11.80;90.50;;;;;;5043535;28;20902;-71
2022/12/21 15:42:16;;;;;;;6.30;4.03;;;11.80;91.90;;;;;;5043872;28;20462;-70
2022/12/21 15:45:01;;;;;;;5.53;3.40;;;11.80;91.40;;;;;;5029266;28;20415;-72
2022/12/21 15:47:34;;;;;;;7.33;4.07;;;11.80;91.60;;;;;;5048418;28;20439;-72
2022/12/21 15:50:03;;;;;;;5.50;3.23;;;11.80;91.20;;;;;;5050518;28;20922;-71
2022/12/21 15:52:35;;;;;;;4.70;3.50;;;11.80;93.20;;;;;;5046408;28;20504;-72
2022/12/21 15:55:16;;;;;;;4.50;3.63;;;11.70;92.80;;;;;;5042840;28;20981;-71
2022/12/21 15:57:45;;;;;;;7.63;3.67;;;11.70;92.90;;;;;;5045669;28;20434;-73
2022/12/21 16:00:17;;;;;;;5.27;4.00;;;11.70;93.70;;;;;;5048959;28;20474;-71
2022/12/21 16:02:54;;;;;;;4.40;4.00;;;11.70;94.80;;;;;;5045053;28;20467;-71
2022/12/21 16:05:22;;;;;;;5.70;4.10;;;11.60;94.20;;;;;;5043143;28;20628;-72
2022/12/21 16:07:50;;;;;;;7.20;4.40;;;11.60;95.50;;;;;;5040241;28;20432;-71
2022/12/21 16:10:33;;;;;;;8.03;4.10;;;11.60;96.90;;;;;;5043523;28;20588;-71
2022/12/21 16:13:02;;;;;;;8.30;4.70;;;11.60;97.30;;;;;;5042140;28;20506;-71
2022/12/21 16:15:41;;;;;;;8.43;5.73;;;11.60;96.50;;;;;;5048402;28;20527;-71
2022/12/21 16:18:07;;;;;;;7.30;4.77;;;11.50;96.90;;;;;;5047798;28;20423;-70
2022/12/21 16:20:35;;;;;;;17.80;10.60;;;11.60;97.20;;;;;;5047996;28;20459;-71
2022/12/21 16:23:01;;;;;;;10.57;8.30;;;11.60;99.70;;;;;;5048389;28;20602;-72
2022/12/21 16:25:31;;;;;;;10.40;4.83;;;11.60;99.40;;;;;;5040148;28;20538;-72
2022/12/21 16:27:57;;;;;;;8.00;5.33;;;11.60;97.90;;;;;;5047952;28;20430;-72
2022/12/21 16:30:23;;;;;;;11.20;7.23;;;11.60;97.30;;;;;;5050328;28;20428;-71
2022/12/21 16:32:51;;;;;;;12.03;8.80;;;11.60;97.60;;;;;;5046784;28;20188;-72
2022/12/21 16:35:22;;;;;;;9.07;6.83;;;11.60;99.70;;;;;;5048406;28;20176;-71
2022/12/21 16:37:48;;;;;;;7.13;5.53;;;11.60;99.70;;;;;;5046271;28;20505;-72
2022/12/21 16:40:22;;;;;;;8.17;5.00;;;11.60;96.80;;;;;;5050278;28;20845;-71
2022/12/21 16:42:51;;;;;;;6.80;4.93;;;11.50;99.30;;;;;;5046219;28;20682;-71
2022/12/21 16:45:25;;;;;;;9.10;6.07;;;11.50;98.30;;;;;;5047090;28;20411;-71
2022/12/21 16:48:18;;;;;;;10.50;5.77;;;11.60;98.20;;;;;;5036562;28;20408;-72
2022/12/21 16:50:44;;;;;;;6.93;5.20;;;11.60;94.80;;;;;;5037258;28;20459;-71
2022/12/21 16:53:36;;;;;;;5.67;4.50;;;11.50;97.30;;;;;;5045538;28;20416;-72
2022/12/21 16:56:19;;;;;;;4.53;3.70;;;11.60;96.50;;;;;;5042815;28;20435;-71
2022/12/21 16:58:49;;;;;;;4.50;3.70;;;11.60;96.40;;;;;;5043954;28;20467;-71
2022/12/21 17:01:49;;;;;;;4.60;3.53;;;11.50;93.00;;;;;;5042836;28;20454;-71
2022/12/21 17:04:17;;;;;;;8.30;5.38;;;11.50;93.80;;;;;;5040267;28;20788;-69
2022/12/21 17:06:45;;;;;;;11.83;5.20;;;11.50;94.70;;;;;;5039603;28;20620;-71
2022/12/21 17:09:18;;;;;;;6.63;3.20;;;11.60;92.40;;;;;;5049243;28;20422;-71
2022/12/21 17:11:52;;;;;;;3.80;3.20;;;11.50;92.80;;;;;;5044932;28;20519;-70
2022/12/21 17:14:18;;;;;;;11.90;8.37;;;11.50;92.20;;;;;;5049350;28;20419;-71
2022/12/21 17:16:49;;;;;;;8.10;5.10;;;11.60;91.70;;;;;;5044503;28;20451;-70
2022/12/21 17:19:21;;;;;;;3.70;2.90;;;11.60;92.80;;;;;;5049286;28;20342;-71
2022/12/21 17:22:02;;;;;;;5.83;3.30;;;11.80;91.00;;;;;;5046116;28;20592;-72
2022/12/21 17:24:33;;;;;;;4.40;2.57;;;11.60;86.30;;;;;;5043799;28;20960;-72
2022/12/21 17:27:05;;;;;;;4.10;3.67;;;11.60;85.00;;;;;;5042224;28;20446;-71
2022/12/21 17:29:31;;;;;;;2.10;1.90;;;11.60;77.10;;;;;;5043693;28;20460;-72
2022/12/21 17:31:56;;;;;;;6.17;3.10;;;11.60;80.10;;;;;;5036234;28;21076;-70
2022/12/21 17:34:28;;;;;;;4.40;3.13;;;11.60;79.00;;;;;;5039753;28;20177;-71
2022/12/21 17:36:55;;;;;;;3.10;2.80;;;11.60;79.60;;;;;;5047944;28;20656;-71
2022/12/21 17:39:22;;;;;;;4.70;3.37;;;11.70;73.80;;;;;;5042086;28;20457;-72
2022/12/21 17:41:48;;;;;;;3.70;2.70;;;11.60;73.70;;;;;;5045773;28;20489;-71
2022/12/21 17:44:13;;;;;;;3.37;2.57;;;11.60;71.30;;;;;;5043668;28;20475;-71
2022/12/21 17:46:40;;;;;;;2.90;2.43;;;11.70;69.00;;;;;;5045746;28;20973;-71
2022/12/21 17:49:11;;;;;;;4.17;3.10;;;11.60;67.60;;;;;;5046632;28;20176;-71
2022/12/21 17:51:37;;;;;;;3.13;2.70;;;11.60;70.60;;;;;;5044669;28;20926;-71
2022/12/21 17:54:02;;;;;;;4.63;3.07;;;11.60;71.60;;;;;;5033928;28;20536;-70
2022/12/21 17:56:28;;;;;;;3.27;2.80;;;11.60;70.90;;;;;;5046278;28;20327;-71
2022/12/21 17:58:54;;;;;;;5.07;3.47;;;11.60;71.10;;;;;;5044123;28;20710;-70
2022/12/21 18:01:24;;;;;;;4.50;3.43;;;11.60;73.80;;;;;;5043194;28;20184;-71
2022/12/21 18:03:50;;;;;;;4.13;3.40;;;11.70;71.10;;;;;;5047225;28;20248;-71
2022/12/21 18:06:18;;;;;;;4.37;3.23;;;11.70;69.40;;;;;;5030632;28;20409;-72
2022/12/21 18:08:44;;;;;;;5.30;3.50;;;11.70;71.20;;;;;;5041744;28;20467;-71
2022/12/21 18:11:12;;;;;;;3.90;3.00;;;11.70;70.30;;;;;;5038595;28;20583;-71
2022/12/21 18:13:38;;;;;;;4.17;3.00;;;11.70;69.00;;;;;;5038363;28;20189;-70
2022/12/21 18:16:04;;;;;;;4.97;3.20;;;11.70;67.80;;;;;;5047773;28;20400;-71
2022/12/21 18:18:32;;;;;;;4.40;3.37;;;11.70;69.00;;;;;;5046648;28;20179;-70
2022/12/21 18:20:58;;;;;;;5.47;3.20;;;11.60;69.30;;;;;;5046822;28;20439;-71
2022/12/21 18:23:35;;;;;;;5.50;3.50;;;11.70;67.30;;;;;;5043746;28;20466;-71
2022/12/21 18:26:01;;;;;;;8.50;4.17;;;11.70;69.70;;;;;;5028110;28;20964;-69
2022/12/21 18:28:32;;;;;;;5.70;4.20;;;11.70;68.70;;;;;;5038253;28;20850;-71
2022/12/21 18:31:09;;;;;;;4.80;3.50;;;11.70;70.70;;;;;;5045984;28;20442;-70
2022/12/21 18:33:44;;;;;;;9.33;4.30;;;11.70;68.00;;;;;;5044226;28;20446;-70
2022/12/21 18:36:15;;;;;;;7.73;4.67;;;11.70;71.10;;;;;;5048846;28;20402;-71
2022/12/21 18:38:41;;;;;;;6.20;4.50;;;10.60;68.50;;;;;;5045617;28;20435;-72
2022/12/21 18:41:13;;;;;;;6.77;4.50;;;11.70;68.60;;;;;;5040405;28;20447;-72
2022/12/21 18:43:39;;;;;;;8.20;4.27;;;11.70;69.60;;;;;;5044823;28;20187;-70
2022/12/21 18:46:09;;;;;;;7.60;4.70;;;11.80;67.10;;;;;;5045618;28;20427;-71
2022/12/21 18:48:35;;;;;;;5.30;4.10;;;11.80;67.20;;;;;;5042997;28;20373;-70
2022/12/21 18:51:01;;;;;;;7.57;4.10;;;11.80;68.20;;;;;;5045043;28;20700;-70
2022/12/21 18:53:27;;;;;;;6.73;4.23;;;13.30;62.50;;;;;;5042890;28;20439;-71
2022/12/21 18:55:52;;;;;;;6.07;4.40;;;11.80;61.30;;;;;;5039759;28;20178;-70
2022/12/21 18:58:18;;;;;;;8.20;4.40;;;11.80;62.40;;;;;;5041273;28;20186;-71
2022/12/21 19:00:46;;;;;;;7.00;4.33;;;11.80;63.20;;;;;;5043505;28;20185;-71
2022/12/21 19:03:21;;;;;;;7.57;4.40;;;11.80;63.10;;;;;;5044546;28;20883;-71
2022/12/21 19:05:47;;;;;;;12.03;5.07;;;11.80;63.30;;;;;;5044801;28;20435;-71
2022/12/21 19:08:14;;;;;;;5.33;4.77;;;11.80;63.70;;;;;;5042503;28;20944;-71
2022/12/21 19:10:40;;;;;;;7.23;5.50;;;11.80;62.80;;;;;;5049364;28;20189;-70
2022/12/21 19:13:30;;;;;;;8.03;5.10;;;11.90;65.80;;;;;;5048325;28;20419;-71